sensor_id;sensor_type;location;lat;lon;timestamp;temperature;humidity
42755;DHT22;28407;51.830;5.684;2023-05-10T00:00:34;16.30;84.40
42755;DHT22;28407;51.830;5.684;2023-05-10T00:02:35;16.20;84.30
42755;DHT22;28407;51.830;5.684;2023-05-10T00:04:36;16.30;84.40
42755;DHT22;28407;51.830;5.684;2023-05-10T00:06:36;16.30;84.40
42755;DHT22;28407;51.830;5.684;2023-05-10T00:08:37;16.30;84.40
42755;DHT22;28407;51.830;5.684;2023-05-10T00:10:38;16.30;84.40
42755;DHT22;28407;51.830;5.684;2023-05-10T00:12:38;16.30;84.40
42755;DHT22;28407;51.830;5.684;2023-05-10T00:14:39;16.30;84.50
42755;DHT22;28407;51.830;5.684;2023-05-10T00:16:40;16.20;84.40
42755;DHT22;28407;51.830;5.684;2023-05-10T00:18:41;16.20;84.40
42755;DHT22;28407;51.830;5.684;2023-05-10T00:20:41;16.20;84.40
42755;DHT22;28407;51.830;5.684;2023-05-10T00:22:42;16.20;84.40
42755;DHT22;28407;51.830;5.684;2023-05-10T00:24:43;16.20;84.40
42755;DHT22;28407;51.830;5.684;2023-05-10T00:26:43;16.20;84.50
42755;DHT22;28407;51.830;5.684;2023-05-10T00:28:44;16.20;84.40
42755;DHT22;28407;51.830;5.684;2023-05-10T00:30:44;16.20;84.40
42755;DHT22;28407;51.830;5.684;2023-05-10T00:32:45;16.20;84.40
42755;DHT22;28407;51.830;5.684;2023-05-10T00:34:46;16.20;84.50
42755;DHT22;28407;51.830;5.684;2023-05-10T00:36:46;16.20;84.50
42755;DHT22;28407;51.830;5.684;2023-05-10T00:38:47;16.20;84.50
42755;DHT22;28407;51.830;5.684;2023-05-10T00:40:47;16.20;84.60
42755;DHT22;28407;51.830;5.684;2023-05-10T00:42:57;16.20;84.60
42755;DHT22;28407;51.830;5.684;2023-05-10T00:44:57;16.10;84.50
42755;DHT22;28407;51.830;5.684;2023-05-10T00:46:59;16.20;84.60
42755;DHT22;28407;51.830;5.684;2023-05-10T00:49:00;16.20;84.70
42755;DHT22;28407;51.830;5.684;2023-05-10T00:51:01;16.10;84.60
42755;DHT22;28407;51.830;5.684;2023-05-10T00:53:02;16.10;84.70
42755;DHT22;28407;51.830;5.684;2023-05-10T00:55:03;16.10;84.70
42755;DHT22;28407;51.830;5.684;2023-05-10T00:57:06;16.10;84.70
42755;DHT22;28407;51.830;5.684;2023-05-10T00:59:10;16.10;84.80
42755;DHT22;28407;51.830;5.684;2023-05-10T01:01:10;16.10;84.80
42755;DHT22;28407;51.830;5.684;2023-05-10T01:03:12;16.10;84.70
42755;DHT22;28407;51.830;5.684;2023-05-10T01:05:13;16.10;84.70
42755;DHT22;28407;51.830;5.684;2023-05-10T01:07:13;16.10;84.70
42755;DHT22;28407;51.830;5.684;2023-05-10T01:09:14;16.10;84.80
42755;DHT22;28407;51.830;5.684;2023-05-10T01:11:15;16.10;84.80
42755;DHT22;28407;51.830;5.684;2023-05-10T01:13:29;16.10;84.80
42755;DHT22;28407;51.830;5.684;2023-05-10T01:15:31;16.10;84.80
42755;DHT22;28407;51.830;5.684;2023-05-10T01:17:32;16.10;84.80
42755;DHT22;28407;51.830;5.684;2023-05-10T01:19:34;16.10;84.80
42755;DHT22;28407;51.830;5.684;2023-05-10T01:21:51;16.10;84.80
42755;DHT22;28407;51.830;5.684;2023-05-10T01:24:18;16.10;84.90
42755;DHT22;28407;51.830;5.684;2023-05-10T01:30:05;16.10;84.90
42755;DHT22;28407;51.830;5.684;2023-05-10T01:34:27;16.10;84.90
42755;DHT22;28407;51.830;5.684;2023-05-10T01:36:32;16.10;84.90
42755;DHT22;28407;51.830;5.684;2023-05-10T01:40:54;16.10;85.00
42755;DHT22;28407;51.830;5.684;2023-05-10T01:43:01;16.10;84.90
42755;DHT22;28407;51.830;5.684;2023-05-10T01:47:17;16.10;85.00
42755;DHT22;28407;51.830;5.684;2023-05-10T01:49:25;16.00;84.90
42755;DHT22;28407;51.830;5.684;2023-05-10T01:51:31;16.00;84.90
42755;DHT22;28407;51.830;5.684;2023-05-10T01:53:37;16.00;85.00
42755;DHT22;28407;51.830;5.684;2023-05-10T01:55:44;16.00;85.00
42755;DHT22;28407;51.830;5.684;2023-05-10T01:57:48;16.00;85.00
42755;DHT22;28407;51.830;5.684;2023-05-10T01:59:51;16.00;84.90
42755;DHT22;28407;51.830;5.684;2023-05-10T02:01:53;16.00;84.90
42755;DHT22;28407;51.830;5.684;2023-05-10T02:03:55;16.00;84.90
42755;DHT22;28407;51.830;5.684;2023-05-10T02:05:57;16.00;84.90
42755;DHT22;28407;51.830;5.684;2023-05-10T02:07:59;16.00;84.90
42755;DHT22;28407;51.830;5.684;2023-05-10T02:10:04;16.00;84.90
42755;DHT22;28407;51.830;5.684;2023-05-10T02:12:06;16.00;84.90
42755;DHT22;28407;51.830;5.684;2023-05-10T02:14:09;16.00;84.90
42755;DHT22;28407;51.830;5.684;2023-05-10T02:16:11;16.00;84.90
42755;DHT22;28407;51.830;5.684;2023-05-10T02:18:13;16.00;84.90
42755;DHT22;28407;51.830;5.684;2023-05-10T02:20:16;16.00;84.90
42755;DHT22;28407;51.830;5.684;2023-05-10T02:22:19;16.00;84.80
42755;DHT22;28407;51.830;5.684;2023-05-10T02:24:20;16.00;84.80
42755;DHT22;28407;51.830;5.684;2023-05-10T02:26:23;15.90;84.70
42755;DHT22;28407;51.830;5.684;2023-05-10T02:28:26;15.90;84.80
42755;DHT22;28407;51.830;5.684;2023-05-10T02:30:27;15.90;84.80
42755;DHT22;28407;51.830;5.684;2023-05-10T02:32:29;15.90;84.80
42755;DHT22;28407;51.830;5.684;2023-05-10T02:34:31;15.90;84.70
42755;DHT22;28407;51.830;5.684;2023-05-10T02:36:33;15.80;84.70
42755;DHT22;28407;51.830;5.684;2023-05-10T02:38:34;15.80;84.70
42755;DHT22;28407;51.830;5.684;2023-05-10T02:40:36;15.90;84.70
42755;DHT22;28407;51.830;5.684;2023-05-10T02:42:40;15.90;84.70
42755;DHT22;28407;51.830;5.684;2023-05-10T02:44:43;15.90;84.70
42755;DHT22;28407;51.830;5.684;2023-05-10T02:46:46;15.90;84.70
42755;DHT22;28407;51.830;5.684;2023-05-10T02:48:47;15.80;84.70
42755;DHT22;28407;51.830;5.684;2023-05-10T02:50:50;15.80;84.70
42755;DHT22;28407;51.830;5.684;2023-05-10T02:52:55;15.90;84.70
42755;DHT22;28407;51.830;5.684;2023-05-10T02:55:01;15.80;84.60
42755;DHT22;28407;51.830;5.684;2023-05-10T02:57:04;15.80;84.70
42755;DHT22;28407;51.830;5.684;2023-05-10T02:59:05;15.80;84.70
42755;DHT22;28407;51.830;5.684;2023-05-10T03:01:06;15.80;84.70
42755;DHT22;28407;51.830;5.684;2023-05-10T03:03:08;15.90;84.70
42755;DHT22;28407;51.830;5.684;2023-05-10T03:05:08;15.80;84.70
42755;DHT22;28407;51.830;5.684;2023-05-10T03:07:09;15.80;84.70
42755;DHT22;28407;51.830;5.684;2023-05-10T03:09:11;15.80;84.70
42755;DHT22;28407;51.830;5.684;2023-05-10T03:16:29;15.80;84.70
42755;DHT22;28407;51.830;5.684;2023-05-10T03:18:40;15.80;84.60
42755;DHT22;28407;51.830;5.684;2023-05-10T03:20:46;15.80;84.70
42755;DHT22;28407;51.830;5.684;2023-05-10T03:22:51;15.80;84.70
42755;DHT22;28407;51.830;5.684;2023-05-10T03:24:56;15.80;84.70
42755;DHT22;28407;51.830;5.684;2023-05-10T03:27:00;15.80;84.70
42755;DHT22;28407;51.830;5.684;2023-05-10T03:29:05;15.80;84.70
42755;DHT22;28407;51.830;5.684;2023-05-10T03:31:07;15.80;84.70
42755;DHT22;28407;51.830;5.684;2023-05-10T03:33:08;15.80;84.70
42755;DHT22;28407;51.830;5.684;2023-05-10T03:35:13;15.80;84.70
42755;DHT22;28407;51.830;5.684;2023-05-10T03:37:14;15.80;84.70
42755;DHT22;28407;51.830;5.684;2023-05-10T03:39:15;15.80;84.70
42755;DHT22;28407;51.830;5.684;2023-05-10T03:41:17;15.80;84.70
42755;DHT22;28407;51.830;5.684;2023-05-10T03:43:18;15.80;84.70
42755;DHT22;28407;51.830;5.684;2023-05-10T03:45:18;15.80;84.80
42755;DHT22;28407;51.830;5.684;2023-05-10T03:47:19;15.80;84.80
42755;DHT22;28407;51.830;5.684;2023-05-10T03:49:20;15.80;84.80
42755;DHT22;28407;51.830;5.684;2023-05-10T03:51:21;15.80;84.80
42755;DHT22;28407;51.830;5.684;2023-05-10T03:53:22;15.80;84.80
42755;DHT22;28407;51.830;5.684;2023-05-10T03:55:23;15.80;84.80
42755;DHT22;28407;51.830;5.684;2023-05-10T03:57:25;15.80;84.80
42755;DHT22;28407;51.830;5.684;2023-05-10T03:59:25;15.80;84.80
42755;DHT22;28407;51.830;5.684;2023-05-10T04:01:26;15.80;84.80
42755;DHT22;28407;51.830;5.684;2023-05-10T04:03:27;15.80;84.80
42755;DHT22;28407;51.830;5.684;2023-05-10T04:05:27;15.80;84.80
42755;DHT22;28407;51.830;5.684;2023-05-10T04:07:28;15.80;84.90
42755;DHT22;28407;51.830;5.684;2023-05-10T04:09:29;15.80;84.90
42755;DHT22;28407;51.830;5.684;2023-05-10T04:11:30;15.80;84.90
42755;DHT22;28407;51.830;5.684;2023-05-10T04:13:31;15.80;84.90
42755;DHT22;28407;51.830;5.684;2023-05-10T04:15:31;15.80;84.90
42755;DHT22;28407;51.830;5.684;2023-05-10T04:17:32;15.80;84.90
42755;DHT22;28407;51.830;5.684;2023-05-10T04:19:33;15.80;84.90
42755;DHT22;28407;51.830;5.684;2023-05-10T04:21:33;15.80;84.90
42755;DHT22;28407;51.830;5.684;2023-05-10T04:23:34;15.80;84.90
42755;DHT22;28407;51.830;5.684;2023-05-10T04:25:34;15.80;85.00
42755;DHT22;28407;51.830;5.684;2023-05-10T04:27:35;15.80;85.00
42755;DHT22;28407;51.830;5.684;2023-05-10T04:29:36;15.80;85.00
42755;DHT22;28407;51.830;5.684;2023-05-10T04:31:37;15.80;85.00
42755;DHT22;28407;51.830;5.684;2023-05-10T04:33:38;15.80;85.00
42755;DHT22;28407;51.830;5.684;2023-05-10T04:35:39;15.80;85.10
42755;DHT22;28407;51.830;5.684;2023-05-10T04:37:40;15.80;85.10
42755;DHT22;28407;51.830;5.684;2023-05-10T04:39:40;15.80;85.20
42755;DHT22;28407;51.830;5.684;2023-05-10T04:41:41;15.80;85.10
42755;DHT22;28407;51.830;5.684;2023-05-10T04:43:42;15.80;85.10
42755;DHT22;28407;51.830;5.684;2023-05-10T04:45:42;15.80;85.20
42755;DHT22;28407;51.830;5.684;2023-05-10T04:47:43;15.80;85.10
42755;DHT22;28407;51.830;5.684;2023-05-10T04:49:43;15.80;85.10
42755;DHT22;28407;51.830;5.684;2023-05-10T04:51:44;15.80;85.10
42755;DHT22;28407;51.830;5.684;2023-05-10T04:53:45;15.80;85.10
42755;DHT22;28407;51.830;5.684;2023-05-10T04:55:45;15.80;85.10
42755;DHT22;28407;51.830;5.684;2023-05-10T04:57:47;15.80;85.10
42755;DHT22;28407;51.830;5.684;2023-05-10T04:59:47;15.80;85.10
42755;DHT22;28407;51.830;5.684;2023-05-10T05:01:48;15.80;85.10
42755;DHT22;28407;51.830;5.684;2023-05-10T05:03:49;15.80;85.20
42755;DHT22;28407;51.830;5.684;2023-05-10T05:05:49;15.80;85.20
42755;DHT22;28407;51.830;5.684;2023-05-10T05:07:50;15.80;85.20
42755;DHT22;28407;51.830;5.684;2023-05-10T05:09:51;15.90;85.30
42755;DHT22;28407;51.830;5.684;2023-05-10T05:11:51;15.80;85.20
42755;DHT22;28407;51.830;5.684;2023-05-10T05:13:52;15.80;85.20
42755;DHT22;28407;51.830;5.684;2023-05-10T05:15:53;15.90;85.30
42755;DHT22;28407;51.830;5.684;2023-05-10T05:17:54;15.80;85.30
42755;DHT22;28407;51.830;5.684;2023-05-10T05:19:55;15.90;85.30
42755;DHT22;28407;51.830;5.684;2023-05-10T05:21:56;15.90;85.30
42755;DHT22;28407;51.830;5.684;2023-05-10T05:23:56;15.90;85.30
42755;DHT22;28407;51.830;5.684;2023-05-10T05:25:57;15.90;85.30
42755;DHT22;28407;51.830;5.684;2023-05-10T05:27:57;15.90;85.30
42755;DHT22;28407;51.830;5.684;2023-05-10T05:29:58;15.90;85.30
42755;DHT22;28407;51.830;5.684;2023-05-10T05:31:59;15.90;85.30
42755;DHT22;28407;51.830;5.684;2023-05-10T05:34:00;15.90;85.30
42755;DHT22;28407;51.830;5.684;2023-05-10T05:36:02;15.90;85.30
42755;DHT22;28407;51.830;5.684;2023-05-10T05:38:03;15.90;85.40
42755;DHT22;28407;51.830;5.684;2023-05-10T05:40:04;16.00;85.40
42755;DHT22;28407;51.830;5.684;2023-05-10T05:42:04;16.00;85.30
42755;DHT22;28407;51.830;5.684;2023-05-10T05:44:05;16.00;85.30
42755;DHT22;28407;51.830;5.684;2023-05-10T05:46:06;16.00;85.30
42755;DHT22;28407;51.830;5.684;2023-05-10T05:48:06;16.00;85.30
42755;DHT22;28407;51.830;5.684;2023-05-10T05:50:07;16.00;85.20
42755;DHT22;28407;51.830;5.684;2023-05-10T05:52:08;16.00;85.20
42755;DHT22;28407;51.830;5.684;2023-05-10T05:54:08;16.00;85.30
42755;DHT22;28407;51.830;5.684;2023-05-10T05:56:09;16.00;85.20
42755;DHT22;28407;51.830;5.684;2023-05-10T05:58:10;16.00;85.30
42755;DHT22;28407;51.830;5.684;2023-05-10T06:00:10;16.00;85.30
42755;DHT22;28407;51.830;5.684;2023-05-10T06:02:14;16.00;85.30
42755;DHT22;28407;51.830;5.684;2023-05-10T06:04:14;16.10;85.30
42755;DHT22;28407;51.830;5.684;2023-05-10T06:06:15;16.10;85.30
42755;DHT22;28407;51.830;5.684;2023-05-10T06:08:16;16.10;85.30
42755;DHT22;28407;51.830;5.684;2023-05-10T06:10:16;16.10;85.30
42755;DHT22;28407;51.830;5.684;2023-05-10T06:12:17;16.10;85.30
42755;DHT22;28407;51.830;5.684;2023-05-10T06:14:20;16.10;85.20
42755;DHT22;28407;51.830;5.684;2023-05-10T06:16:21;16.20;85.30
42755;DHT22;28407;51.830;5.684;2023-05-10T06:18:21;16.20;85.90
42755;DHT22;28407;51.830;5.684;2023-05-10T06:20:22;16.20;85.30
42755;DHT22;28407;51.830;5.684;2023-05-10T06:22:22;16.20;85.20
42755;DHT22;28407;51.830;5.684;2023-05-10T06:24:23;16.10;85.20
42755;DHT22;28407;51.830;5.684;2023-05-10T06:26:23;16.10;85.20
42755;DHT22;28407;51.830;5.684;2023-05-10T06:28:25;16.20;85.30
42755;DHT22;28407;51.830;5.684;2023-05-10T06:30:25;16.20;85.30
42755;DHT22;28407;51.830;5.684;2023-05-10T06:32:28;16.20;85.30
42755;DHT22;28407;51.830;5.684;2023-05-10T06:34:29;16.10;85.20
42755;DHT22;28407;51.830;5.684;2023-05-10T06:36:30;16.10;85.20
42755;DHT22;28407;51.830;5.684;2023-05-10T06:38:31;16.10;85.20
42755;DHT22;28407;51.830;5.684;2023-05-10T06:40:31;16.10;85.20
42755;DHT22;28407;51.830;5.684;2023-05-10T06:42:33;16.10;85.20
42755;DHT22;28407;51.830;5.684;2023-05-10T06:44:33;16.10;85.30
42755;DHT22;28407;51.830;5.684;2023-05-10T06:46:34;16.10;85.20
42755;DHT22;28407;51.830;5.684;2023-05-10T06:48:35;16.10;85.30
42755;DHT22;28407;51.830;5.684;2023-05-10T06:50:36;16.10;85.20
42755;DHT22;28407;51.830;5.684;2023-05-10T06:52:37;16.10;85.20
42755;DHT22;28407;51.830;5.684;2023-05-10T06:54:37;16.10;85.20
42755;DHT22;28407;51.830;5.684;2023-05-10T06:56:38;16.10;85.20
42755;DHT22;28407;51.830;5.684;2023-05-10T06:58:39;16.10;85.20
42755;DHT22;28407;51.830;5.684;2023-05-10T07:00:40;16.10;85.20
42755;DHT22;28407;51.830;5.684;2023-05-10T07:02:43;16.10;85.20
42755;DHT22;28407;51.830;5.684;2023-05-10T07:04:43;16.10;85.10
42755;DHT22;28407;51.830;5.684;2023-05-10T07:06:44;16.10;85.10
42755;DHT22;28407;51.830;5.684;2023-05-10T07:08:46;16.10;85.20
42755;DHT22;28407;51.830;5.684;2023-05-10T07:10:47;16.10;85.20
42755;DHT22;28407;51.830;5.684;2023-05-10T07:12:47;16.10;85.10
42755;DHT22;28407;51.830;5.684;2023-05-10T07:14:48;16.10;85.10
42755;DHT22;28407;51.830;5.684;2023-05-10T07:16:48;16.10;85.10
42755;DHT22;28407;51.830;5.684;2023-05-10T07:18:49;16.10;85.10
42755;DHT22;28407;51.830;5.684;2023-05-10T07:20:51;16.10;85.10
42755;DHT22;28407;51.830;5.684;2023-05-10T07:22:51;16.10;85.10
42755;DHT22;28407;51.830;5.684;2023-05-10T07:24:52;16.10;85.10
42755;DHT22;28407;51.830;5.684;2023-05-10T07:26:53;16.10;85.10
42755;DHT22;28407;51.830;5.684;2023-05-10T07:28:53;16.20;85.30
42755;DHT22;28407;51.830;5.684;2023-05-10T07:30:54;16.20;85.20
42755;DHT22;28407;51.830;5.684;2023-05-10T07:32:54;16.10;85.10
42755;DHT22;28407;51.830;5.684;2023-05-10T07:34:55;16.10;85.20
42755;DHT22;28407;51.830;5.684;2023-05-10T07:36:58;16.20;85.20
42755;DHT22;28407;51.830;5.684;2023-05-10T07:38:59;16.20;85.30
42755;DHT22;28407;51.830;5.684;2023-05-10T07:40:59;16.20;85.20
42755;DHT22;28407;51.830;5.684;2023-05-10T07:43:00;16.20;85.20
42755;DHT22;28407;51.830;5.684;2023-05-10T07:45:02;16.20;85.20
42755;DHT22;28407;51.830;5.684;2023-05-10T07:47:02;16.20;85.20
42755;DHT22;28407;51.830;5.684;2023-05-10T07:49:03;16.20;85.20
42755;DHT22;28407;51.830;5.684;2023-05-10T07:51:04;16.20;85.10
42755;DHT22;28407;51.830;5.684;2023-05-10T07:53:04;16.20;85.10
42755;DHT22;28407;51.830;5.684;2023-05-10T07:55:05;16.20;85.10
42755;DHT22;28407;51.830;5.684;2023-05-10T07:57:07;16.20;85.10
42755;DHT22;28407;51.830;5.684;2023-05-10T07:59:08;16.30;85.20
42755;DHT22;28407;51.830;5.684;2023-05-10T08:01:08;16.30;85.20
42755;DHT22;28407;51.830;5.684;2023-05-10T08:03:09;16.30;85.10
42755;DHT22;28407;51.830;5.684;2023-05-10T08:05:09;16.30;85.10
42755;DHT22;28407;51.830;5.684;2023-05-10T08:07:11;16.30;85.10
42755;DHT22;28407;51.830;5.684;2023-05-10T08:09:11;16.40;85.10
42755;DHT22;28407;51.830;5.684;2023-05-10T08:11:12;16.40;85.00
42755;DHT22;28407;51.830;5.684;2023-05-10T08:13:12;16.40;84.90
42755;DHT22;28407;51.830;5.684;2023-05-10T08:15:13;16.40;84.80
42755;DHT22;28407;51.830;5.684;2023-05-10T08:17:13;16.50;84.90
42755;DHT22;28407;51.830;5.684;2023-05-10T08:19:14;16.50;84.90
42755;DHT22;28407;51.830;5.684;2023-05-10T08:21:19;16.50;84.90
42755;DHT22;28407;51.830;5.684;2023-05-10T08:23:19;16.50;84.80
42755;DHT22;28407;51.830;5.684;2023-05-10T08:25:20;16.50;84.80
42755;DHT22;28407;51.830;5.684;2023-05-10T08:27:21;16.50;84.80
42755;DHT22;28407;51.830;5.684;2023-05-10T08:29:21;16.50;84.80
42755;DHT22;28407;51.830;5.684;2023-05-10T08:31:22;16.50;84.80
42755;DHT22;28407;51.830;5.684;2023-05-10T08:33:22;16.50;84.80
42755;DHT22;28407;51.830;5.684;2023-05-10T08:35:23;16.50;84.70
42755;DHT22;28407;51.830;5.684;2023-05-10T08:37:24;16.50;84.70
42755;DHT22;28407;51.830;5.684;2023-05-10T08:39:25;16.50;84.60
42755;DHT22;28407;51.830;5.684;2023-05-10T08:41:26;16.50;84.70
42755;DHT22;28407;51.830;5.684;2023-05-10T08:43:27;16.50;84.70
42755;DHT22;28407;51.830;5.684;2023-05-10T08:45:33;16.50;84.70
42755;DHT22;28407;51.830;5.684;2023-05-10T08:47:36;16.50;84.70
42755;DHT22;28407;51.830;5.684;2023-05-10T08:49:38;16.50;84.60
42755;DHT22;28407;51.830;5.684;2023-05-10T08:51:44;16.50;84.70
42755;DHT22;28407;51.830;5.684;2023-05-10T08:53:47;16.50;84.70
42755;DHT22;28407;51.830;5.684;2023-05-10T08:55:47;16.50;84.60
42755;DHT22;28407;51.830;5.684;2023-05-10T08:57:49;16.50;84.60
42755;DHT22;28407;51.830;5.684;2023-05-10T08:59:49;16.50;84.60
42755;DHT22;28407;51.830;5.684;2023-05-10T09:01:51;16.50;84.60
42755;DHT22;28407;51.830;5.684;2023-05-10T09:03:53;16.50;84.60
42755;DHT22;28407;51.830;5.684;2023-05-10T09:05:55;16.50;84.60
42755;DHT22;28407;51.830;5.684;2023-05-10T09:07:56;16.50;84.60
42755;DHT22;28407;51.830;5.684;2023-05-10T09:09:57;16.50;84.50
42755;DHT22;28407;51.830;5.684;2023-05-10T09:11:58;16.50;84.60
42755;DHT22;28407;51.830;5.684;2023-05-10T09:13:58;16.50;84.50
42755;DHT22;28407;51.830;5.684;2023-05-10T09:15:59;16.50;84.50
42755;DHT22;28407;51.830;5.684;2023-05-10T09:18:01;16.50;84.50
42755;DHT22;28407;51.830;5.684;2023-05-10T09:20:04;16.50;84.40
42755;DHT22;28407;51.830;5.684;2023-05-10T09:22:04;16.60;84.40
42755;DHT22;28407;51.830;5.684;2023-05-10T09:24:06;16.50;84.40
42755;DHT22;28407;51.830;5.684;2023-05-10T09:26:07;16.60;84.40
42755;DHT22;28407;51.830;5.684;2023-05-10T09:28:08;16.50;84.30
42755;DHT22;28407;51.830;5.684;2023-05-10T09:30:10;16.60;84.30
42755;DHT22;28407;51.830;5.684;2023-05-10T09:32:10;16.60;84.30
42755;DHT22;28407;51.830;5.684;2023-05-10T09:34:11;16.60;84.20
42755;DHT22;28407;51.830;5.684;2023-05-10T09:36:12;16.70;84.20
42755;DHT22;28407;51.830;5.684;2023-05-10T09:38:13;16.70;84.00
42755;DHT22;28407;51.830;5.684;2023-05-10T09:40:19;16.80;84.00
42755;DHT22;28407;51.830;5.684;2023-05-10T09:42:20;16.80;83.90
42755;DHT22;28407;51.830;5.684;2023-05-10T09:44:21;16.80;83.80
42755;DHT22;28407;51.830;5.684;2023-05-10T09:46:22;16.80;83.70
42755;DHT22;28407;51.830;5.684;2023-05-10T09:48:25;16.90;83.60
42755;DHT22;28407;51.830;5.684;2023-05-10T09:50:27;16.90;83.50
42755;DHT22;28407;51.830;5.684;2023-05-10T09:52:29;16.90;83.50
42755;DHT22;28407;51.830;5.684;2023-05-10T09:54:30;16.90;83.40
42755;DHT22;28407;51.830;5.684;2023-05-10T09:56:35;16.90;83.40
42755;DHT22;28407;51.830;5.684;2023-05-10T09:58:40;17.00;83.30
42755;DHT22;28407;51.830;5.684;2023-05-10T10:00:43;17.00;83.30
42755;DHT22;28407;51.830;5.684;2023-05-10T10:02:46;17.00;83.20
42755;DHT22;28407;51.830;5.684;2023-05-10T10:04:49;17.00;83.30
42755;DHT22;28407;51.830;5.684;2023-05-10T10:07:03;17.10;83.20
42755;DHT22;28407;51.830;5.684;2023-05-10T10:09:05;17.10;83.00
42755;DHT22;28407;51.830;5.684;2023-05-10T10:11:06;17.20;82.80
42755;DHT22;28407;51.830;5.684;2023-05-10T10:13:07;17.30;82.70
42755;DHT22;28407;51.830;5.684;2023-05-10T10:15:08;17.30;82.60
42755;DHT22;28407;51.830;5.684;2023-05-10T10:17:10;17.40;82.40
42755;DHT22;28407;51.830;5.684;2023-05-10T10:19:12;17.50;82.30
42755;DHT22;28407;51.830;5.684;2023-05-10T10:21:14;17.60;82.20
42755;DHT22;28407;51.830;5.684;2023-05-10T10:23:15;17.60;82.00
42755;DHT22;28407;51.830;5.684;2023-05-10T10:25:17;17.70;81.90
42755;DHT22;28407;51.830;5.684;2023-05-10T10:29:52;17.80;81.70
42755;DHT22;28407;51.830;5.684;2023-05-10T10:34:28;17.90;81.40
42755;DHT22;28407;51.830;5.684;2023-05-10T10:36:29;18.00;81.20
42755;DHT22;28407;51.830;5.684;2023-05-10T10:40:47;18.00;81.00
42755;DHT22;28407;51.830;5.684;2023-05-10T10:42:48;18.00;81.00
42755;DHT22;28407;51.830;5.684;2023-05-10T10:45:13;18.00;80.90
42755;DHT22;28407;51.830;5.684;2023-05-10T10:54:28;18.30;80.20
42755;DHT22;28407;51.830;5.684;2023-05-10T10:56:28;18.40;80.10
42755;DHT22;28407;51.830;5.684;2023-05-10T10:58:33;18.40;80.00
42755;DHT22;28407;51.830;5.684;2023-05-10T11:00:55;18.50;79.90
42755;DHT22;28407;51.830;5.684;2023-05-10T11:03:13;18.50;79.70
42755;DHT22;28407;51.830;5.684;2023-05-10T11:08:20;18.60;79.40
42755;DHT22;28407;51.830;5.684;2023-05-10T11:14:24;18.60;79.10
42755;DHT22;28407;51.830;5.684;2023-05-10T11:16:19;18.60;79.20
42755;DHT22;28407;51.830;5.684;2023-05-10T11:18:39;18.70;79.20
42755;DHT22;28407;51.830;5.684;2023-05-10T11:21:03;18.70;79.00
42755;DHT22;28407;51.830;5.684;2023-05-10T11:23:39;18.80;79.00
42755;DHT22;28407;51.830;5.684;2023-05-10T11:25:43;18.80;78.70
42755;DHT22;28407;51.830;5.684;2023-05-10T11:28:28;18.90;78.70
42755;DHT22;28407;51.830;5.684;2023-05-10T11:30:39;18.90;78.50
42755;DHT22;28407;51.830;5.684;2023-05-10T11:32:42;18.90;78.40
42755;DHT22;28407;51.830;5.684;2023-05-10T11:34:49;19.00;78.30
42755;DHT22;28407;51.830;5.684;2023-05-10T11:36:54;19.00;78.10
42755;DHT22;28407;51.830;5.684;2023-05-10T11:38:58;19.10;78.00
42755;DHT22;28407;51.830;5.684;2023-05-10T11:41:01;19.20;77.90
42755;DHT22;28407;51.830;5.684;2023-05-10T11:43:02;19.10;77.70
42755;DHT22;28407;51.830;5.684;2023-05-10T11:45:04;19.10;77.70
42755;DHT22;28407;51.830;5.684;2023-05-10T11:47:05;19.10;77.60
42755;DHT22;28407;51.830;5.684;2023-05-10T11:49:08;19.10;77.60
42755;DHT22;28407;51.830;5.684;2023-05-10T11:51:10;19.10;77.60
42755;DHT22;28407;51.830;5.684;2023-05-10T11:53:13;19.20;77.60
42755;DHT22;28407;51.830;5.684;2023-05-10T11:55:13;19.10;77.50
42755;DHT22;28407;51.830;5.684;2023-05-10T11:57:14;19.20;77.40
42755;DHT22;28407;51.830;5.684;2023-05-10T11:59:15;19.20;77.30
42755;DHT22;28407;51.830;5.684;2023-05-10T12:01:16;19.20;77.20
42755;DHT22;28407;51.830;5.684;2023-05-10T12:03:16;19.20;77.30
42755;DHT22;28407;51.830;5.684;2023-05-10T12:05:17;19.20;77.30
42755;DHT22;28407;51.830;5.684;2023-05-10T12:07:18;19.20;77.20
42755;DHT22;28407;51.830;5.684;2023-05-10T12:09:19;19.20;77.20
42755;DHT22;28407;51.830;5.684;2023-05-10T12:11:27;19.20;77.20
42755;DHT22;28407;51.830;5.684;2023-05-10T12:13:28;19.20;77.20
42755;DHT22;28407;51.830;5.684;2023-05-10T12:15:29;19.10;77.10
42755;DHT22;28407;51.830;5.684;2023-05-10T12:17:30;19.20;77.10
42755;DHT22;28407;51.830;5.684;2023-05-10T12:19:45;19.20;77.00
42755;DHT22;28407;51.830;5.684;2023-05-10T12:21:48;19.10;77.00
42755;DHT22;28407;51.830;5.684;2023-05-10T12:23:54;19.10;77.10
42755;DHT22;28407;51.830;5.684;2023-05-10T12:26:02;19.10;77.10
42755;DHT22;28407;51.830;5.684;2023-05-10T12:28:08;19.00;77.10
42755;DHT22;28407;51.830;5.684;2023-05-10T12:30:10;19.00;77.30
42755;DHT22;28407;51.830;5.684;2023-05-10T12:32:11;18.90;77.40
42755;DHT22;28407;51.830;5.684;2023-05-10T12:34:11;18.80;77.60
42755;DHT22;28407;51.830;5.684;2023-05-10T12:36:23;18.80;77.80
42755;DHT22;28407;51.830;5.684;2023-05-10T12:38:44;18.70;78.00
42755;DHT22;28407;51.830;5.684;2023-05-10T12:40:48;18.70;78.10
42755;DHT22;28407;51.830;5.684;2023-05-10T12:42:48;18.60;78.10
42755;DHT22;28407;51.830;5.684;2023-05-10T12:44:49;18.60;78.10
42755;DHT22;28407;51.830;5.684;2023-05-10T12:46:50;18.60;78.20
42755;DHT22;28407;51.830;5.684;2023-05-10T12:48:50;18.60;78.90
42755;DHT22;28407;51.830;5.684;2023-05-10T12:50:55;18.50;78.30
42755;DHT22;28407;51.830;5.684;2023-05-10T12:52:55;18.60;78.40
42755;DHT22;28407;51.830;5.684;2023-05-10T12:54:56;18.60;78.40
42755;DHT22;28407;51.830;5.684;2023-05-10T12:56:57;18.50;78.40
42755;DHT22;28407;51.830;5.684;2023-05-10T12:58:57;18.50;78.30
42755;DHT22;28407;51.830;5.684;2023-05-10T13:00:59;18.50;78.30
42755;DHT22;28407;51.830;5.684;2023-05-10T13:02:59;18.50;78.40
42755;DHT22;28407;51.830;5.684;2023-05-10T13:05:00;18.50;78.40
42755;DHT22;28407;51.830;5.684;2023-05-10T13:07:01;18.50;78.40
42755;DHT22;28407;51.830;5.684;2023-05-10T13:09:02;18.40;78.40
42755;DHT22;28407;51.830;5.684;2023-05-10T13:11:03;18.40;78.50
42755;DHT22;28407;51.830;5.684;2023-05-10T13:13:04;18.40;78.50
42755;DHT22;28407;51.830;5.684;2023-05-10T13:15:06;18.50;78.50
42755;DHT22;28407;51.830;5.684;2023-05-10T13:17:07;18.40;78.40
42755;DHT22;28407;51.830;5.684;2023-05-10T13:19:07;18.40;78.40
42755;DHT22;28407;51.830;5.684;2023-05-10T13:21:08;18.40;78.40
42755;DHT22;28407;51.830;5.684;2023-05-10T13:23:08;18.40;78.50
42755;DHT22;28407;51.830;5.684;2023-05-10T13:25:09;18.40;78.50
42755;DHT22;28407;51.830;5.684;2023-05-10T13:27:10;18.40;78.40
42755;DHT22;28407;51.830;5.684;2023-05-10T13:29:10;18.50;78.40